Report METAR

 

LIBG - Grottaglie(Civ/A, Italy
Distanza dalla stazione: NE 13km
Dati ricevuti: 28/01/2022 18:50
Poche nubi
Poche nubi
 Vento da NNO
Vento: NNO 9 km/h
Temperatura: 9°C
Temperatura Vento: 7°C
P.to Rugiada: 4°C
Umidità: 71%
Barometro: 1021 hPa
Nuvole: Poche nubi
Visibilità: 10 km
Dettagli nuvole: Poche nubi 1372 m
2022/01/28 17:50 LIBG 281750Z 33005KT 9999 FEW045 09/04 Q1021
LIBH - Marina Di Ginosa, Italy
Distanza dalla stazione: O 33km
Dati ricevuti: 28/01/2022 18:55
Sereno
Sereno
 Vento da N
Vento: N 11 km/h
Temperatura: 9°C
Temperatura Vento: 7°C
P.to Rugiada: 4°C
Umidità: 71%
Barometro: 1020 hPa
Riassunto: Sereno
Visibilità: superiore a 10 km
2022/01/28 17:55 LIBH 281755Z 35006KT CAVOK 09/04 Q1020 RMK BKN BKN140 QUK / QUL / VIS MAR 20 KM VIS MIN 9999
 
LIBV - Gioia Del Colle, Italy
Distanza dalla stazione: NO 45km
Dati ricevuti: 28/01/2022 18:55
Molto nuvoloso
Molto nuvoloso
 Vento da NNO
Vento: NNO 7 km/h
Temperatura: 8°C
Temperatura Vento: 7°C
P.to Rugiada: 4°C
Umidità: 76%
Barometro: 1020 hPa
Nuvole: Molto nuvoloso
Visibilità: 10 km
Dettagli nuvole: Molto nuvoloso 914 m
2022/01/28 17:55 LIBV 281755Z 33004KT 9999 BKN030 08/04 Q1020
LIBR - Brindisi/Casale, Italy
Distanza dalla stazione: ENE 62km
Dati ricevuti: 28/01/2022 19:20
Molto nuvoloso
Molto nuvoloso
 Vento da NNO
Vento: NNO 13 km/h
Temperatura: 11°C
P.to Rugiada: 7°C
Umidità: 77%
Barometro: 1021 hPa
Nuvole: Molto nuvoloso
Visibilità: 10 km
Dettagli nuvole: Parz. nuvoloso 610 m
Molto nuvoloso 914 m
2022/01/28 18:20 LIBR 281820Z 34007KT 310V010 9999 SCT020 BKN030 11/07 Q1021
 
LIBN - Lecce (it-Afb), Italy
Distanza dalla stazione: ESE 79km
Dati ricevuti: 28/01/2022 18:55
Poche nubi
Poche nubi
 Vento da ONO
Vento: ONO 9 km/h
Temperatura: 6°C
Temperatura Vento: 4°C
P.to Rugiada: 4°C
Umidità: 87%
Barometro: 1021 hPa
Nuvole: Poche nubi
Visibilità: 10 km
Dettagli nuvole: Poche nubi 610 m
2022/01/28 17:55 LIBN 281755Z 30005KT 9999 FEW020 06/04 Q1021
LIBD - Bari/Palese Macc, Italy
Distanza dalla stazione: NNO 85km
Dati ricevuti: 28/01/2022 19:20
Pioggia, Nuvoloso
Pioggia, Nuvoloso
 Vento da NNO
Vento: NNO 13 km/h
Temperatura: 9°C
Temperatura Vento: 7°C
P.to Rugiada: 6°C
Umidità: 82%
Barometro: 1023 hPa
Riassunto: Pioggia
Nuvole: Molto nuvoloso
Visibilità: 5 km
Dettagli nuvole: Poche nubi 305 m
Molto nuvoloso 914 m
2022/01/28 18:20 LIBD 281820Z 33007KT 290V350 5000 RA FEW010 BKN030 09/06 Q1023